Time;durP1;ratioP1;P1;durP2;ratioP2;P2;SDS_P1;SDS_P2;PMS_P1;PMS_P2;Temp;Humidity;BMP_temperature;BMP_pressure;BME280_temperature;BME280_humidity;BME280_pressure;Samples;Min_cycle;Max_cycle;Signal;HPM_P1;HPM_P2
2023/05/22 00:00:16;;;;;;;2.50;2.10;;;16.40;99.40;;;;;;6127427;23;20433;-80
2023/05/22 00:02:43;;;;;;;3.13;2.20;;;16.30;99.40;;;;;;6151162;23;20362;-80
2023/05/22 00:05:14;;;;;;;4.65;2.28;;;16.30;99.60;;;;;;6127045;23;20381;-83
2023/05/22 00:07:41;;;;;;;2.50;2.30;;;16.30;99.60;;;;;;6126425;23;20695;-81
2023/05/22 00:10:09;;;;;;;2.20;2.00;;;16.30;99.40;;;;;;6127154;23;20362;-83
2023/05/22 00:12:36;;;;;;;3.38;2.05;;;16.30;99.40;;;;;;6150968;23;20437;-80
2023/05/22 00:15:04;;;;;;;2.60;2.37;;;16.30;99.60;;;;;;6151889;23;20450;-82
2023/05/22 00:17:32;;;;;;;2.88;2.58;;;16.30;98.90;;;;;;6150980;23;20447;-82
2023/05/22 00:20:06;;;;;;;3.65;2.67;;;16.30;98.70;;;;;;6127194;23;20995;-82
2023/05/22 00:22:34;;;;;;;3.35;2.53;;;16.30;98.70;;;;;;6151916;23;20384;-82
2023/05/22 00:25:05;;;;;;;3.10;2.58;;;16.40;97.90;;;;;;6127378;23;20374;-82
2023/05/22 00:27:33;;;;;;;4.30;2.72;;;16.40;97.50;;;;;;6150705;23;20710;-81
2023/05/22 00:30:00;;;;;;;3.00;2.10;;;16.40;97.50;;;;;;6151044;23;20386;-82
2023/05/22 00:32:27;;;;;;;3.40;2.20;;;16.40;98.30;;;;;;6126378;23;20380;-84
2023/05/22 00:34:54;;;;;;;3.15;2.22;;;16.40;98.10;;;;;;6152565;23;20382;-84
2023/05/22 00:37:21;;;;;;;3.17;2.45;;;16.40;98.10;;;;;;6126344;23;20740;-81
2023/05/22 00:39:49;;;;;;;3.17;2.70;;;16.50;97.50;;;;;;6127315;23;20704;-83
2023/05/22 00:42:16;;;;;;;3.65;2.70;;;16.40;98.20;;;;;;6126964;23;20737;-79
2023/05/22 00:44:43;;;;;;;2.42;2.22;;;16.40;98.20;;;;;;6150756;23;20366;-82
2023/05/22 00:47:10;;;;;;;3.15;2.45;;;16.40;98.00;;;;;;6126984;23;20378;-81
2023/05/22 00:49:37;;;;;;;2.90;2.40;;;16.40;97.90;;;;;;6125985;23;20371;-81
2023/05/22 00:52:04;;;;;;;3.22;2.45;;;16.50;97.50;;;;;;6126504;23;20378;-82
2023/05/22 00:54:32;;;;;;;3.78;2.28;;;16.40;98.00;;;;;;6151570;23;20379;-82
2023/05/22 00:57:00;;;;;;;2.83;2.20;;;16.40;98.30;;;;;;6126568;23;20712;-82
2023/05/22 00:59:28;;;;;;;2.22;2.03;;;16.40;98.20;;;;;;6150672;23;20380;-80
2023/05/22 01:01:56;;;;;;;3.57;2.60;;;16.40;98.10;;;;;;6151064;23;20459;-81
2023/05/22 01:04:24;;;;;;;2.95;2.60;;;16.30;98.30;;;;;;6083614;23;20385;-80
2023/05/22 01:06:52;;;;;;;2.53;2.33;;;16.30;98.70;;;;;;6066824;23;20419;-77
2023/05/22 01:09:19;;;;;;;2.80;2.50;;;16.30;98.50;;;;;;6092222;23;20458;-77
2023/05/22 01:11:57;;;;;;;3.92;2.70;;;16.20;98.70;;;;;;6066230;23;20703;-75
2023/05/22 01:14:30;;;;;;;2.60;2.40;;;16.20;99.30;;;;;;6067088;23;20822;-79
2023/05/22 01:17:22;;;;;;;3.78;2.80;;;16.20;99.40;;;;;;6067344;23;20382;-77
2023/05/22 01:20:04;;;;;;;3.90;2.42;;;16.20;99.20;;;;;;6066969;23;20707;-77
2023/05/22 01:23:05;;;;;;;3.37;2.27;;;16.20;97.50;;;;;;6065873;23;20508;-77
2023/05/22 01:25:41;;;;;;;5.25;2.50;;;16.30;97.10;;;;;;6066977;23;20381;-78
2023/05/22 01:28:30;;;;;;;5.53;2.50;;;16.30;96.70;;;;;;6068065;23;20393;-77
2023/05/22 01:31:10;;;;;;;2.30;2.10;;;16.40;97.20;;;;;;6092061;23;20843;-78
2023/05/22 01:33:47;;;;;;;2.28;2.08;;;16.30;97.50;;;;;;6091231;23;20484;-78
2023/05/22 01:36:19;;;;;;;2.85;2.08;;;16.30;98.10;;;;;;6067941;23;20385;-77
2023/05/22 01:38:46;;;;;;;2.45;2.05;;;16.20;98.60;;;;;;6065761;23;20377;-78
2023/05/22 01:41:15;;;;;;;3.13;2.35;;;16.20;99.20;;;;;;6068070;23;20693;-77
2023/05/22 01:43:43;;;;;;;2.90;2.47;;;16.10;99.60;;;;;;6066690;23;20460;-76
2023/05/22 01:46:10;;;;;;;3.03;2.47;;;16.00;99.90;;;;;;6067816;23;20389;-77
2023/05/22 01:48:37;;;;;;;3.63;2.60;;;16.00;99.90;;;;;;6066911;23;20377;-78
2023/05/22 01:51:12;;;;;;;3.47;2.30;;;15.90;99.90;;;;;;6068011;23;20693;-77
2023/05/22 01:53:49;;;;;;;2.90;2.70;;;15.90;99.90;;;;;;6066735;23;20883;-77
2023/05/22 01:56:29;;;;;;;3.00;2.60;;;15.80;99.90;;;;;;6067595;23;20370;-77
2023/05/22 01:59:14;;;;;;;3.30;2.88;;;15.80;99.90;;;;;;6066955;23;20366;-77
2023/05/22 02:01:42;;;;;;;3.65;2.85;;;15.80;99.90;;;;;;6067013;23;20373;-78
2023/05/22 02:04:11;;;;;;;3.25;2.30;;;15.80;99.90;;;;;;6082225;23;20382;-77
2023/05/22 02:06:39;;;;;;;2.65;2.40;;;15.80;99.90;;;;;;6095417;23;20831;-77
2023/05/22 02:09:07;;;;;;;3.05;2.45;;;15.80;99.60;;;;;;6096304;23;20375;-77
2023/05/22 02:11:36;;;;;;;2.83;2.63;;;15.80;99.50;;;;;;6096628;23;20443;-77
2023/05/22 02:14:03;;;;;;;3.97;2.97;;;15.80;99.10;;;;;;6094972;23;20852;-76
2023/05/22 02:16:31;;;;;;;2.65;2.45;;;15.80;99.90;;;;;;6096222;23;20384;-77
2023/05/22 02:19:04;;;;;;;2.70;2.40;;;15.70;99.70;;;;;;6095657;23;20380;-77
2023/05/22 02:21:35;;;;;;;2.97;2.35;;;15.80;99.60;;;;;;6121736;23;20380;-76
2023/05/22 02:24:02;;;;;;;2.47;2.28;;;15.80;99.40;;;;;;6097088;23;20443;-83
2023/05/22 02:26:29;;;;;;;4.22;2.10;;;15.80;99.10;;;;;;6122603;23;20777;-82
2023/05/22 02:28:56;;;;;;;4.03;2.35;;;15.80;98.90;;;;;;6120914;23;20379;-82
2023/05/22 02:31:24;;;;;;;3.53;2.67;;;15.80;99.10;;;;;;6097647;23;20375;-83
2023/05/22 02:33:50;;;;;;;2.60;1.95;;;15.80;99.00;;;;;;6097793;23;20412;-82
2023/05/22 02:36:17;;;;;;;2.42;2.20;;;15.80;99.30;;;;;;6098829;23;20449;-83
2023/05/22 02:38:44;;;;;;;2.20;2.00;;;15.70;99.70;;;;;;6121869;23;20691;-82
2023/05/22 02:41:11;;;;;;;3.08;2.35;;;15.70;99.40;;;;;;6098423;23;20746;-84
2023/05/22 02:43:38;;;;;;;2.47;2.00;;;15.70;99.10;;;;;;6097804;23;20374;-83
2023/05/22 02:46:05;;;;;;;2.75;2.50;;;15.80;99.20;;;;;;6121461;23;20378;-83
2023/05/22 02:48:32;;;;;;;2.55;2.22;;;15.70;99.50;;;;;;6099286;23;20378;-83
2023/05/22 02:50:59;;;;;;;3.15;2.30;;;15.70;99.70;;;;;;6098319;23;20378;-81
2023/05/22 02:53:26;;;;;;;2.63;2.13;;;15.70;99.20;;;;;;6099217;23;20380;-81
2023/05/22 02:55:57;;;;;;;1.88;1.77;;;15.70;99.80;;;;;;6098931;23;20435;-81
2023/05/22 02:58:24;;;;;;;3.90;2.30;;;15.60;99.90;;;;;;6099442;23;20389;-82
2023/05/22 03:00:52;;;;;;;3.55;2.58;;;15.60;99.90;;;;;;6124567;23;20372;-83
2023/05/22 03:03:19;;;;;;;2.78;2.25;;;15.60;99.90;;;;;;6098593;23;20375;-82
2023/05/22 03:05:46;;;;;;;3.95;2.35;;;15.50;99.90;;;;;;6098511;23;20383;-82
2023/05/22 03:08:14;;;;;;;3.42;2.40;;;15.50;99.90;;;;;;6099455;23;20371;-82
2023/05/22 03:10:41;;;;;;;2.60;2.40;;;15.40;99.90;;;;;;6123017;23;20462;-83
2023/05/22 03:13:08;;;;;;;2.72;2.53;;;15.30;99.90;;;;;;6098108;23;20733;-83
2023/05/22 03:15:35;;;;;;;2.60;1.95;;;15.30;99.90;;;;;;6124352;23;20388;-81
2023/05/22 03:18:02;;;;;;;3.78;2.55;;;15.40;99.90;;;;;;6097830;23;20375;-81
2023/05/22 03:20:30;;;;;;;2.45;2.25;;;15.40;99.90;;;;;;6122911;23;20455;-80
2023/05/22 03:22:57;;;;;;;2.53;2.33;;;15.40;99.90;;;;;;6123600;23;20683;-83
2023/05/22 03:25:24;;;;;;;2.70;2.33;;;15.40;99.90;;;;;;6123422;23;20729;-83
2023/05/22 03:27:51;;;;;;;2.97;2.40;;;15.40;99.90;;;;;;6098146;23;20376;-83
2023/05/22 03:30:17;;;;;;;3.00;2.38;;;15.50;99.90;;;;;;6098558;23;20430;-81
2023/05/22 03:32:45;;;;;;;4.68;2.78;;;15.50;99.90;;;;;;6099397;23;20379;-83
2023/05/22 03:35:14;;;;;;;4.07;2.67;;;15.50;99.90;;;;;;6097613;23;20443;-82
2023/05/22 03:37:41;;;;;;;3.72;2.67;;;15.60;99.90;;;;;;6098554;23;20399;-83
2023/05/22 03:40:09;;;;;;;3.20;2.40;;;15.60;99.80;;;;;;6121959;23;20679;-82
2023/05/22 03:42:35;;;;;;;2.83;2.57;;;15.60;99.70;;;;;;6098519;23;20747;-83
2023/05/22 03:45:03;;;;;;;3.33;2.57;;;15.50;99.60;;;;;;6097551;23;20432;-82
2023/05/22 03:47:29;;;;;;;4.18;2.85;;;15.50;99.60;;;;;;6124396;23;20387;-83
2023/05/22 03:49:56;;;;;;;3.15;2.47;;;15.50;99.30;;;;;;6122928;23;20383;-81
2023/05/22 03:52:24;;;;;;;2.45;2.20;;;15.60;99.40;;;;;;6098401;23;20746;-82
2023/05/22 03:54:52;;;;;;;2.50;2.30;;;15.60;99.30;;;;;;6122558;23;20376;-82
2023/05/22 03:57:19;;;;;;;3.00;2.30;;;15.50;99.80;;;;;;6122780;23;20431;-81
2023/05/22 03:59:46;;;;;;;3.00;2.42;;;15.50;99.60;;;;;;6097948;23;20438;-83
2023/05/22 04:02:15;;;;;;;3.22;2.80;;;15.50;99.90;;;;;;6097751;23;20458;-83
2023/05/22 04:04:44;;;;;;;3.25;2.53;;;15.50;99.90;;;;;;6098182;23;20403;-82
2023/05/22 04:07:12;;;;;;;3.25;2.33;;;15.50;99.90;;;;;;6122895;23;20388;-81
2023/05/22 04:09:40;;;;;;;2.80;2.50;;;15.40;99.90;;;;;;6124024;23;20383;-83
2023/05/22 04:12:07;;;;;;;3.10;2.80;;;15.50;99.90;;;;;;6097758;23;20754;-83
2023/05/22 04:14:34;;;;;;;2.78;2.38;;;15.40;99.90;;;;;;6098674;23;20721;-82
2023/05/22 04:17:01;;;;;;;3.33;2.35;;;15.40;99.90;;;;;;6097615;23;20891;-83
2023/05/22 04:19:28;;;;;;;2.80;2.60;;;15.50;99.90;;;;;;6098217;23;20430;-83
2023/05/22 04:21:57;;;;;;;4.10;3.25;;;15.50;99.90;;;;;;6097108;23;20372;-83
2023/05/22 04:24:24;;;;;;;4.68;4.20;;;15.40;99.90;;;;;;6098179;23;20376;-83
2023/05/22 04:26:51;;;;;;;4.20;3.80;;;15.30;99.90;;;;;;6122695;23;20376;-81
2023/05/22 04:29:18;;;;;;;5.43;4.20;;;15.30;99.90;;;;;;6098266;23;20379;-83
2023/05/22 04:31:46;;;;;;;4.60;4.10;;;15.30;99.90;;;;;;6123633;23;20438;-84
2023/05/22 04:34:14;;;;;;;2.75;2.55;;;15.20;99.90;;;;;;6097441;23;20374;-84
2023/05/22 04:36:43;;;;;;;3.65;3.33;;;15.20;99.90;;;;;;6097722;23;20706;-84
2023/05/22 04:39:12;;;;;;;4.18;3.50;;;15.20;99.90;;;;;;6096912;23;20435;-84
2023/05/22 04:41:39;;;;;;;3.85;2.95;;;15.20;99.90;;;;;;6097825;23;20382;-84
2023/05/22 04:44:07;;;;;;;4.13;2.88;;;15.20;99.90;;;;;;6097330;23;20904;-83
2023/05/22 04:46:34;;;;;;;2.88;2.50;;;15.20;99.90;;;;;;6121460;23;20383;-84
2023/05/22 04:49:02;;;;;;;2.92;2.55;;;15.20;99.90;;;;;;6097773;23;20739;-83
2023/05/22 04:51:30;;;;;;;3.10;2.80;;;15.20;99.90;;;;;;6097021;23;20683;-83
2023/05/22 04:53:57;;;;;;;2.70;2.50;;;15.10;99.90;;;;;;6122291;23;20857;-83
2023/05/22 04:56:25;;;;;;;3.90;2.78;;;15.10;99.90;;;;;;6122866;23;20431;-84
2023/05/22 04:59:04;;;;;;;2.63;2.40;;;15.10;99.90;;;;;;6122408;23;20422;-83
2023/05/22 05:01:31;;;;;;;3.30;2.60;;;15.10;99.90;;;;;;6097443;23;20379;-83
2023/05/22 05:03:59;;;;;;;3.05;2.75;;;15.10;99.90;;;;;;6096201;23;20463;-83
2023/05/22 05:06:26;;;;;;;4.50;2.92;;;15.10;99.90;;;;;;6097379;23;20376;-84
2023/05/22 05:08:53;;;;;;;3.42;2.55;;;15.10;99.90;;;;;;6097083;23;20379;-84
2023/05/22 05:11:20;;;;;;;2.63;2.42;;;15.10;99.90;;;;;;6096658;23;20671;-83
2023/05/22 05:13:47;;;;;;;2.88;2.60;;;15.20;99.90;;;;;;6097139;23;20717;-83
2023/05/22 05:16:14;;;;;;;3.00;2.70;;;15.20;99.90;;;;;;6096483;23;20379;-83
2023/05/22 05:18:42;;;;;;;2.73;2.43;;;15.20;99.90;;;;;;6121742;23;20439;-83
2023/05/22 05:21:09;;;;;;;3.00;2.47;;;15.40;99.90;;;;;;6121808;23;20383;-83
2023/05/22 05:23:36;;;;;;;3.70;2.50;;;15.40;99.90;;;;;;6097420;23;20766;-81
2023/05/22 05:26:03;;;;;;;2.50;2.30;;;15.40;99.90;;;;;;6120576;23;20880;-82
2023/05/22 05:28:29;;;;;;;2.67;2.47;;;15.50;99.90;;;;;;6097291;23;20446;-82
2023/05/22 05:30:56;;;;;;;2.80;2.42;;;15.50;99.90;;;;;;6097566;23;20383;-82
2023/05/22 05:33:23;;;;;;;3.28;2.58;;;15.50;99.90;;;;;;6097459;23;20372;-82
2023/05/22 05:35:51;;;;;;;2.90;2.15;;;15.50;99.90;;;;;;6123045;23;20699;-82
2023/05/22 05:38:18;;;;;;;2.55;2.35;;;15.50;99.90;;;;;;6096231;23;20380;-83
2023/05/22 05:40:45;;;;;;;3.78;2.45;;;15.50;99.90;;;;;;6097255;23;20376;-81
2023/05/22 05:43:15;;;;;;;2.45;2.25;;;15.50;99.90;;;;;;6096715;23;20388;-82
2023/05/22 05:45:43;;;;;;;3.88;2.42;;;15.50;99.90;;;;;;6096957;23;20733;-82
2023/05/22 05:48:10;;;;;;;2.40;2.10;;;15.50;99.90;;;;;;6089828;23;20394;-82
2023/05/22 05:50:37;;;;;;;2.78;2.58;;;15.40;99.90;;;;;;6094832;23;20403;-82
2023/05/22 05:53:05;;;;;;;2.95;2.60;;;15.50;99.90;;;;;;6096549;23;20378;-81
2023/05/22 05:55:32;;;;;;;3.13;2.60;;;15.50;99.90;;;;;;6097816;23;20375;-82
2023/05/22 05:58:00;;;;;;;4.43;2.47;;;15.60;99.90;;;;;;6097223;23;20726;-82
2023/05/22 06:00:27;;;;;;;2.67;1.95;;;15.60;99.90;;;;;;6122311;23;20379;-82
2023/05/22 06:02:54;;;;;;;2.55;2.17;;;15.60;99.90;;;;;;6097027;23;20387;-82
2023/05/22 06:05:22;;;;;;;3.20;2.25;;;15.70;99.60;;;;;;6096658;23;20443;-82
2023/05/22 06:07:49;;;;;;;2.67;2.47;;;15.80;99.40;;;;;;6122875;23;20368;-82
2023/05/22 06:10:16;;;;;;;2.97;2.33;;;15.80;99.30;;;;;;6096642;23;20379;-82
2023/05/22 06:12:43;;;;;;;3.00;2.70;;;15.90;99.90;;;;;;6097274;23;20441;-82
2023/05/22 06:15:12;;;;;;;2.70;2.50;;;15.90;99.90;;;;;;6096475;23;20391;-82
2023/05/22 06:17:39;;;;;;;2.50;2.30;;;16.00;99.90;;;;;;6097241;23;20703;-82
2023/05/22 06:20:07;;;;;;;2.90;2.00;;;16.10;98.60;;;;;;6096684;23;20367;-81
2023/05/22 06:22:35;;;;;;;2.53;2.05;;;16.10;98.30;;;;;;6099185;23;20371;-82
2023/05/22 06:25:02;;;;;;;2.97;2.45;;;16.20;98.00;;;;;;6123424;23;20386;-82
2023/05/22 06:27:29;;;;;;;2.70;2.50;;;16.20;96.30;;;;;;6098875;23;20375;-82
2023/05/22 06:29:56;;;;;;;3.22;2.30;;;16.40;95.80;;;;;;6099120;23;20714;-82
2023/05/22 06:32:23;;;;;;;2.67;2.47;;;16.40;96.70;;;;;;6123840;23;20434;-82
2023/05/22 06:34:50;;;;;;;2.33;2.13;;;16.40;96.00;;;;;;6099017;23;20722;-82
2023/05/22 06:37:17;;;;;;;3.00;2.20;;;16.40;96.70;;;;;;6124091;23;20379;-81
2023/05/22 06:39:43;;;;;;;3.35;2.70;;;16.40;96.10;;;;;;6099184;23;20368;-81
2023/05/22 06:42:10;;;;;;;2.80;2.30;;;16.40;96.50;;;;;;6097969;23;20368;-81
2023/05/22 06:44:37;;;;;;;3.10;2.70;;;16.40;96.70;;;;;;6099157;23;20459;-81
2023/05/22 06:47:04;;;;;;;2.67;2.40;;;16.40;97.50;;;;;;6123155;23;20848;-81
2023/05/22 06:49:31;;;;;;;2.55;2.35;;;16.50;96.70;;;;;;6098724;23;20447;-82
2023/05/22 06:51:58;;;;;;;2.30;2.10;;;16.60;96.00;;;;;;6098965;23;20372;-82
2023/05/22 06:54:27;;;;;;;2.88;2.30;;;16.80;94.70;;;;;;6098400;23;20368;-83
2023/05/22 06:56:55;;;;;;;3.10;2.40;;;16.80;95.00;;;;;;6098637;23;20379;-81
2023/05/22 06:59:22;;;;;;;2.60;2.40;;;16.80;95.80;;;;;;6098134;23;20427;-81
2023/05/22 07:01:50;;;;;;;2.95;2.38;;;16.90;95.00;;;;;;6123380;23;20372;-83
2023/05/22 07:04:17;;;;;;;2.45;2.22;;;16.90;95.00;;;;;;6097767;23;20386;-82
2023/05/22 07:06:44;;;;;;;4.43;2.37;;;16.90;94.50;;;;;;6099061;23;20850;-83
2023/05/22 07:09:12;;;;;;;3.33;2.45;;;17.00;95.10;;;;;;6122043;23;20382;-82
2023/05/22 07:11:41;;;;;;;3.00;2.30;;;17.10;94.00;;;;;;6098664;23;21236;-82
2023/05/22 07:14:11;;;;;;;3.10;2.50;;;17.10;92.90;;;;;;6124456;23;20376;-81
2023/05/22 07:16:39;;;;;;;2.80;2.50;;;17.20;92.10;;;;;;6098199;23;20439;-84
2023/05/22 07:19:07;;;;;;;2.90;2.40;;;17.30;94.60;;;;;;6098695;23;20706;-83
2023/05/22 07:21:34;;;;;;;3.17;2.23;;;17.50;94.40;;;;;;6098289;23;20376;-83
2023/05/22 07:24:08;;;;;;;3.28;2.53;;;17.70;91.20;;;;;;6099073;23;20857;-82
2023/05/22 07:26:35;;;;;;;2.80;2.50;;;17.80;92.00;;;;;;6097881;23;20394;-82
2023/05/22 07:29:03;;;;;;;3.67;2.60;;;18.00;91.20;;;;;;6124583;23;20378;-84
2023/05/22 07:31:32;;;;;;;3.10;2.15;;;18.10;89.70;;;;;;6097921;23;20384;-83
2023/05/22 07:33:59;;;;;;;2.80;2.50;;;18.20;87.60;;;;;;6098886;23;20463;-83
2023/05/22 07:36:26;;;;;;;2.72;2.42;;;18.40;87.90;;;;;;6097176;23;20383;-83
2023/05/22 07:38:53;;;;;;;2.60;2.30;;;18.50;88.30;;;;;;6122683;23;20379;-83
2023/05/22 07:41:21;;;;;;;2.63;2.23;;;18.60;87.20;;;;;;6097529;23;20376;-82
2023/05/22 07:43:48;;;;;;;3.28;2.58;;;18.70;83.90;;;;;;6098701;23;20376;-83
2023/05/22 07:46:15;;;;;;;3.60;2.03;;;18.90;80.00;;;;;;6098650;23;20380;-83
2023/05/22 07:48:42;;;;;;;2.53;2.30;;;18.90;81.50;;;;;;6097971;23;20395;-83
2023/05/22 07:51:09;;;;;;;6.07;2.53;;;18.90;80.00;;;;;;6098587;23;20376;-84
2023/05/22 07:53:36;;;;;;;2.47;2.28;;;18.80;81.30;;;;;;6097301;23;20384;-83
2023/05/22 07:56:03;;;;;;;2.97;2.40;;;18.80;82.00;;;;;;6098838;23;20380;-83
2023/05/22 07:58:30;;;;;;;2.63;2.08;;;18.80;82.70;;;;;;6097283;23;20379;-83
2023/05/22 08:00:58;;;;;;;2.47;2.08;;;18.80;83.20;;;;;;6098292;23;20380;-83
2023/05/22 08:03:25;;;;;;;4.03;2.25;;;18.80;84.30;;;;;;6097068;23;20379;-83
2023/05/22 08:05:52;;;;;;;4.30;2.20;;;18.90;83.70;;;;;;6122454;23;20379;-84
2023/05/22 08:08:19;;;;;;;2.83;2.33;;;19.00;79.80;;;;;;6096691;23;20383;-82
2023/05/22 08:10:47;;;;;;;3.27;2.37;;;19.10;81.40;;;;;;6122855;23;20459;-83
2023/05/22 08:13:30;;;;;;;2.00;1.80;;;19.10;81.20;;;;;;6123207;23;20714;-83
2023/05/22 08:15:57;;;;;;;2.83;2.13;;;19.20;80.10;;;;;;6098104;23;20387;-84
2023/05/22 08:18:27;;;;;;;2.58;2.22;;;19.30;81.50;;;;;;6098130;23;20390;-82
2023/05/22 08:20:55;;;;;;;2.90;2.20;;;19.30;75.70;;;;;;6099040;23;20382;-82
2023/05/22 08:23:22;;;;;;;2.43;1.90;;;19.30;77.90;;;;;;6097276;23;20787;-82
2023/05/22 08:25:49;;;;;;;2.33;2.13;;;19.30;76.00;;;;;;6098255;23;20714;-83
2023/05/22 08:28:16;;;;;;;5.13;2.50;;;19.30;77.80;;;;;;6123635;23;20391;-82
2023/05/22 08:30:43;;;;;;;14.40;3.00;;;19.20;78.50;;;;;;6096745;23;20375;-82
2023/05/22 08:33:10;;;;;;;3.58;2.05;;;19.30;82.70;;;;;;6098545;23;20388;-83
2023/05/22 08:35:38;;;;;;;3.03;2.40;;;19.30;81.50;;;;;;6123109;23;20467;-83
2023/05/22 08:38:05;;;;;;;2.60;2.40;;;19.30;79.50;;;;;;6124007;23;20431;-83
2023/05/22 08:40:36;;;;;;;2.83;2.45;;;19.30;81.20;;;;;;6097291;23;20451;-82
2023/05/22 08:43:05;;;;;;;2.20;2.00;;;19.30;79.50;;;;;;6098204;23;20697;-83
2023/05/22 08:45:32;;;;;;;2.70;2.45;;;19.30;81.80;;;;;;6096051;23;20434;-84
2023/05/22 08:48:07;;;;;;;3.10;2.35;;;19.40;76.90;;;;;;6098079;23;20379;-83
2023/05/22 08:50:41;;;;;;;2.92;2.50;;;19.40;77.90;;;;;;6096647;23;20376;-84
2023/05/22 08:53:12;;;;;;;3.23;2.37;;;19.40;78.10;;;;;;6098156;23;20864;-83
2023/05/22 08:55:39;;;;;;;3.30;2.50;;;19.40;78.90;;;;;;6097011;23;20388;-83
2023/05/22 08:58:08;;;;;;;3.13;2.53;;;19.40;81.10;;;;;;6097569;23;20444;-83
2023/05/22 09:00:36;;;;;;;2.45;2.25;;;19.50;81.90;;;;;;6097108;23;20710;-82
2023/05/22 09:03:05;;;;;;;3.10;2.75;;;19.70;80.00;;;;;;6097520;23;20438;-83
2023/05/22 09:05:33;;;;;;;2.80;2.60;;;19.90;77.30;;;;;;6122383;23;20482;-84
2023/05/22 09:08:01;;;;;;;2.90;2.50;;;20.00;74.10;;;;;;6097621;23;20391;-83
2023/05/22 09:10:45;;;;;;;3.78;2.33;;;20.20;75.60;;;;;;6122197;23;20383;-83
2023/05/22 09:13:29;;;;;;;3.78;2.72;;;20.30;80.30;;;;;;6097678;23;20380;-84
2023/05/22 09:16:10;;;;;;;5.60;3.00;;;20.30;74.10;;;;;;6096858;23;20390;-82
2023/05/22 09:18:38;;;;;;;4.90;3.00;;;20.40;73.80;;;;;;6096828;23;20382;-83
2023/05/22 09:21:06;;;;;;;18.43;6.37;;;20.50;75.00;;;;;;6097127;23;20430;-83
2023/05/22 09:23:53;;;;;;;5.00;2.70;;;20.60;73.90;;;;;;6101042;23;20383;-82
2023/05/22 09:26:21;;;;;;;3.97;2.60;;;20.70;71.50;;;;;;6097725;23;20702;-83
2023/05/22 09:28:48;;;;;;;3.30;2.78;;;20.70;68.80;;;;;;6096677;23;20372;-83
2023/05/22 09:31:15;;;;;;;2.35;2.15;;;20.70;70.20;;;;;;6097769;23;20391;-82
2023/05/22 09:33:43;;;;;;;2.53;2.33;;;20.70;74.40;;;;;;6096472;23;20757;-81
2023/05/22 09:36:10;;;;;;;15.35;3.42;;;20.80;76.60;;;;;;6122923;23;20383;-83
2023/05/22 09:38:38;;;;;;;20.50;3.67;;;20.90;72.90;;;;;;6121999;23;20379;-82
2023/05/22 09:41:05;;;;;;;3.15;2.70;;;21.00;74.70;;;;;;6097453;23;20383;-82
2023/05/22 09:43:33;;;;;;;3.70;2.60;;;21.10;73.30;;;;;;6122802;23;20725;-82
2023/05/22 09:46:01;;;;;;;4.75;2.70;;;21.30;74.40;;;;;;6122300;23;20746;-82
2023/05/22 09:48:28;;;;;;;23.52;3.17;;;21.40;72.80;;;;;;6097398;23;20399;-83
2023/05/22 09:50:58;;;;;;;3.50;2.67;;;21.50;71.20;;;;;;6096469;23;20438;-82
2023/05/22 09:53:27;;;;;;;13.23;3.22;;;21.70;67.70;;;;;;6096841;23;20372;-82
2023/05/22 09:55:59;;;;;;;20.25;3.28;;;21.80;65.60;;;;;;6096237;23;20433;-83
2023/05/22 09:58:29;;;;;;;38.28;3.65;;;22.00;68.30;;;;;;6096860;23;20376;-82
2023/05/22 10:00:57;;;;;;;41.80;3.90;;;22.30;65.20;;;;;;6096354;23;20407;-82
2023/05/22 10:03:26;;;;;;;35.77;3.63;;;22.50;65.00;;;;;;6097086;23;20377;-82
2023/05/22 10:05:57;;;;;;;29.95;3.70;;;22.70;66.10;;;;;;6062908;23;20380;-82
2023/05/22 10:08:27;;;;;;;2.95;2.45;;;22.80;62.70;;;;;;6063352;23;20409;-82
2023/05/22 10:10:54;;;;;;;25.50;3.20;;;22.90;63.30;;;;;;6062558;23;20392;-82
2023/05/22 10:13:23;;;;;;;15.35;3.20;;;23.00;62.20;;;;;;6064818;23;20383;-82
2023/05/22 10:15:50;;;;;;;32.08;4.00;;;23.20;63.10;;;;;;6062196;23;20451;-82
2023/05/22 10:18:18;;;;;;;21.95;3.90;;;23.60;65.20;;;;;;6064973;23;20379;-82
2023/05/22 10:20:47;;;;;;;53.28;4.63;;;24.10;59.70;;;;;;6062339;23;20770;-82
2023/05/22 10:23:15;;;;;;;59.53;5.07;;;24.30;55.90;;;;;;6063577;23;20374;-83
2023/05/22 10:25:44;;;;;;;34.47;3.57;;;24.50;55.20;;;;;;6062562;23;20387;-82
2023/05/22 10:28:15;;;;;;;125.65;7.30;;;24.60;54.20;;;;;;6063522;23;20378;-82
2023/05/22 10:30:59;;;;;;;59.60;4.50;;;24.70;53.60;;;;;;6062516;23;20379;-82
2023/05/22 10:33:38;;;;;;;123.47;7.53;;;24.70;53.70;;;;;;6063669;23;20379;-82
2023/05/22 10:36:15;;;;;;;37.93;4.00;;;24.80;53.10;;;;;;6063600;23;20390;-82
2023/05/22 10:38:50;;;;;;;42.17;4.25;;;24.90;53.90;;;;;;6062718;23;20390;-82
2023/05/22 10:41:17;;;;;;;159.00;8.63;;;25.00;54.50;;;;;;6062930;23;20390;-82
2023/05/22 10:43:48;;;;;;;160.77;8.20;;;25.30;53.80;;;;;;6062298;23;20383;-83
2023/05/22 10:46:15;;;;;;;114.55;6.72;;;25.60;51.70;;;;;;6063454;23;20758;-82
2023/05/22 10:48:47;;;;;;;116.32;7.15;;;25.90;51.60;;;;;;6062643;23;20411;-82
2023/05/22 10:51:18;;;;;;;134.43;6.93;;;26.00;49.50;;;;;;6063485;23;20386;-82
2023/05/22 10:53:52;;;;;;;102.88;5.90;;;26.00;49.80;;;;;;6063043;23;20387;-82
2023/05/22 10:56:18;;;;;;;69.03;5.00;;;26.00;48.20;;;;;;6063980;23;20391;-83
2023/05/22 10:58:56;;;;;;;172.40;9.10;;;26.00;49.40;;;;;;6062596;23;20379;-82
2023/05/22 11:01:26;;;;;;;101.80;6.67;;;26.10;49.70;;;;;;6063217;23;20386;-83
2023/05/22 11:03:58;;;;;;;54.60;4.80;;;26.10;50.50;;;;;;6067719;23;20386;-82
2023/05/22 11:06:45;;;;;;;81.80;5.95;;;26.20;50.40;;;;;;6092115;23;20386;-82
2023/05/22 11:09:47;;;;;;;179.55;9.23;;;26.20;50.50;;;;;;6094159;23;20374;-82
2023/05/22 11:12:19;;;;;;;164.68;9.27;;;26.00;50.60;;;;;;6092936;23;20454;-83
2023/05/22 11:14:57;;;;;;;86.47;5.97;;;25.90;50.80;;;;;;6093972;23;20903;-82
2023/05/22 11:17:29;;;;;;;260.42;12.25;;;25.90;51.20;;;;;;6092824;23;20389;-82
2023/05/22 11:20:23;;;;;;;153.73;8.63;;;25.80;51.10;;;;;;6093570;23;20377;-82
2023/05/22 11:23:00;;;;;;;53.53;5.78;;;25.80;51.50;;;;;;6092776;23;20739;-82
2023/05/22 11:25:28;;;;;;;95.53;7.90;;;25.60;51.80;;;;;;6092822;23;20452;-81
2023/05/22 11:27:56;;;;;;;127.60;8.10;;;25.50;51.60;;;;;;6093625;23;20389;-82
2023/05/22 11:30:29;;;;;;;127.53;8.43;;;25.40;52.10;;;;;;6093563;23;20389;-83
2023/05/22 11:33:00;;;;;;;110.97;6.60;;;25.40;53.80;;;;;;6093042;23;20373;-82
2023/05/22 11:35:27;;;;;;;87.93;7.18;;;25.30;53.90;;;;;;6092186;23;20385;-82
2023/05/22 11:37:55;;;;;;;127.25;8.40;;;25.40;53.40;;;;;;6093063;23;20393;-82
2023/05/22 11:40:24;;;;;;;82.75;6.80;;;25.50;53.40;;;;;;6094248;23;20381;-82
2023/05/22 11:42:52;;;;;;;97.95;7.30;;;25.50;52.40;;;;;;6092531;23;20377;-82
2023/05/22 11:45:20;;;;;;;171.32;11.20;;;25.60;55.00;;;;;;6092505;23;20378;-83
2023/05/22 11:47:47;;;;;;;172.40;10.55;;;25.60;52.80;;;;;;6092648;23;20385;-82
2023/05/22 11:50:14;;;;;;;125.13;8.50;;;25.70;52.30;;;;;;6117278;23;20432;-82
2023/05/22 11:52:53;;;;;;;153.98;9.43;;;25.70;51.20;;;;;;6092457;23;20460;-82
2023/05/22 11:55:21;;;;;;;92.78;7.80;;;25.50;51.50;;;;;;6094462;23;20727;-82
2023/05/22 11:57:48;;;;;;;84.45;7.00;;;25.50;53.60;;;;;;6093420;23;20914;-81
2023/05/22 12:00:16;;;;;;;68.07;6.00;;;25.50;55.30;;;;;;6093233;23;20392;-80
2023/05/22 12:02:46;;;;;;;71.80;6.05;;;25.80;53.70;;;;;;6092147;23;20436;-83
2023/05/22 12:05:14;;;;;;;32.30;4.77;;;25.80;53.60;;;;;;6115929;23;20695;-82
2023/05/22 12:07:42;;;;;;;94.95;6.90;;;25.60;53.80;;;;;;6122705;23;20435;-82
2023/05/22 12:10:09;;;;;;;68.22;6.68;;;25.40;53.30;;;;;;6098017;23;20383;-82
2023/05/22 12:12:37;;;;;;;97.10;7.25;;;25.20;53.80;;;;;;6097333;23;20438;-82
2023/05/22 12:15:05;;;;;;;37.50;5.95;;;25.10;53.80;;;;;;6097993;23;20371;-82
2023/05/22 12:17:36;;;;;;;44.03;5.80;;;24.80;53.60;;;;;;6098142;23;20427;-82
2023/05/22 12:20:05;;;;;;;91.53;7.57;;;24.60;55.50;;;;;;6097315;23;20409;-81
2023/05/22 12:22:32;;;;;;;24.95;4.90;;;24.50;55.90;;;;;;6097972;23;20376;-83
2023/05/22 12:24:59;;;;;;;32.78;5.63;;;24.40;57.10;;;;;;6097184;23;20383;-83
2023/05/22 12:27:30;;;;;;;59.23;6.47;;;24.30;55.30;;;;;;6098061;23;20383;-83
2023/05/22 12:30:09;;;;;;;32.92;5.68;;;24.30;56.50;;;;;;6097620;23;20400;-81
2023/05/22 12:32:38;;;;;;;5.17;4.70;;;24.40;58.30;;;;;;6097952;23;20467;-80
2023/05/22 12:35:05;;;;;;;5.82;4.53;;;24.80;57.30;;;;;;6096650;23;20738;-80
2023/05/22 12:37:32;;;;;;;5.47;4.60;;;25.10;55.20;;;;;;6097566;23;20391;-80
2023/05/22 12:40:02;;;;;;;5.77;4.43;;;25.40;51.80;;;;;;6122255;23;20873;-81
2023/05/22 12:42:29;;;;;;;4.20;3.80;;;25.60;53.10;;;;;;6097715;23;20388;-80
2023/05/22 12:44:58;;;;;;;4.27;3.83;;;25.80;54.10;;;;;;6121440;23;20842;-81
2023/05/22 12:47:25;;;;;;;4.20;3.70;;;26.00;48.40;;;;;;6097305;23;20430;-80
2023/05/22 12:49:52;;;;;;;4.30;3.90;;;26.20;52.40;;;;;;6096708;23;20379;-80
2023/05/22 12:52:19;;;;;;;6.35;4.13;;;26.40;52.30;;;;;;6121767;23;20390;-80